Home

PKWA Terminal Aerodrome Forecast (TAF)small logo


TAF provided by NWS Guam
2015/08/01 06:36
TAF PKWA 010532Z 0106/0206 12011KT P6SM VCSH BKN015 OVC120

      



Site Map | Contact Us | Copyright © 2007 Atmospheric Technology Services Company. All rights reserved.